Sirius — WDA2145 — position and weather

sailwx.info

Track history (hours):
 
Tides and Currents Weather Stations Pressure Air Temp Water Temp Dewpoint Dewpoint Depression Visibility Wind Speed Wind Dir Waves Ship Positions

Sirius

Owner: TISBURY TOWING AND TRANSPORTATION INC, TISBURY, MA. More information available from US FCC via Universal Licensing System and Coast Guard Vessel Documentation Center.

Last reported at 2015-May-29 21:33 UTC. Time now 2015-May-29 22:13 UTC.
Position N 41°36' W 070°54'.

Length 19 m; draft 1.9 m.

Type: Towing. MMSI: 367181040.

Date/timePositionNaut miles runAvg speedWind from/ knotsBaromVisibWave heightAir tempDewpointWater temp
2015-May-29 21:33N 41°36' W 070°54'2 0.1
2015-May-28 23:04N 41°38' W 070°55'9 5.6
2015-May-28 21:33N 41°32' W 070°46'6 5.4
2015-May-28 20:31N 41°31' W 070°39'4 4.2
2015-May-28 19:33N 41°27' W 070°36'1 1.0
2015-May-28 18:34N 41°28' W 070°35'4 3.5
2015-May-28 17:31N 41°27' W 070°30'4 4.6
2015-May-28 16:33N 41°27' W 070°24'7 5.4
2015-May-28 15:16N 41°25' W 070°15'11 0.8
2015-May-28 01:11N 41°17' W 070°06'2 3.9
2015-May-28 00:33N 41°19' W 070°07'6 6.2
2015-May-27 23:33N 41°25' W 070°11'7 7.1
2015-May-27 22:34N 41°26' W 070°20'8 7.6
2015-May-27 21:33N 41°28' W 070°30'8 7.9
2015-May-27 20:30N 41°31' W 070°41'7 7.1
2015-May-27 19:33N 41°33' W 070°49'6 6.0
2015-May-27 18:31N 41°38' W 070°55'1 1.1
2015-May-27 17:24N 41°39' W 070°55'7 2.5
2015-May-27 14:27N 41°33' W 070°49'6 6.7
2015-May-27 13:30N 41°31' W 070°41'6 4.6
2015-May-27 12:17N 41°27' W 070°36'0 0.0
2015-May-27 09:29N 41°27' W 070°36'0 0.0
2015-May-27 08:32N 41°27' W 070°36'0 0.0
2015-May-27 07:31N 41°27' W 070°36'0 0.0
2015-May-27 06:29N 41°27' W 070°36'0 0.0
2015-May-27 05:33N 41°27' W 070°36'0 0.0
2015-May-27 04:28N 41°27' W 070°36'0 0.0
2015-May-27 03:33N 41°27' W 070°36'0 0.0
2015-May-27 00:28N 41°27' W 070°36'0 0.0
2015-May-26 23:07N 41°27' W 070°36'0 0.0
2015-May-26 21:30N 41°27' W 070°36'0 0.0
2015-May-26 20:33N 41°27' W 070°36'0 0.0
2015-May-26 19:31N 41°27' W 070°36'0 0.0
2015-May-26 13:15N 41°27' W 070°36'0 0.0
2015-May-26 12:28N 41°27' W 070°36'0 0.0
2015-May-26 09:22N 41°27' W 070°36'0 0.0
2015-May-26 08:12N 41°27' W 070°36'0 0.0
2015-May-26 07:32N 41°27' W 070°36'0 0.0
2015-May-26 06:33N 41°27' W 070°36'0 0.0
2015-May-26 05:33N 41°27' W 070°36'0 0.0
2015-May-26 04:33N 41°27' W 070°36'0 0.0
2015-May-26 03:34N 41°27' W 070°36'0 0.0
2015-May-26 02:28N 41°27' W 070°36'0 0.0
2015-May-26 01:24N 41°27' W 070°36'0 0.0
2015-May-26 00:28N 41°27' W 070°36'0 0.0
2015-May-25 23:25N 41°27' W 070°36'0 0.0
2015-May-25 22:33N 41°27' W 070°36'0 0.0
2015-May-25 21:33N 41°27' W 070°36'0 0.0
2015-May-25 20:33N 41°27' W 070°36'0 0.0
2015-May-25 19:33N 41°27' W 070°36'0 0.0
2015-May-25 18:33N 41°27' W 070°36'0 0.0
2015-May-25 17:33N 41°27' W 070°36'0 0.0
2015-May-25 16:27N 41°27' W 070°36'0 0.0
2015-May-25 15:32N 41°27' W 070°36'0 0.0
2015-May-25 14:07N 41°27' W 070°36'0 0.0
2015-May-25 13:16N 41°27' W 070°36'0 0.0
2015-May-25 12:33N 41°27' W 070°36'0 0.0
2015-May-25 11:33N 41°27' W 070°36'0 0.0
2015-May-25 10:33N 41°27' W 070°36'0 0.0
2015-May-25 09:33N 41°27' W 070°36'0 0.0
2015-May-25 08:33N 41°27' W 070°36'0 0.0
2015-May-25 07:23N 41°27' W 070°36'0 0.0
2015-May-25 02:18N 41°27' W 070°36'0 0.0
2015-May-25 01:32N 41°27' W 070°36'0 0.0
2015-May-25 00:34N 41°27' W 070°36'0 0.0
2015-May-24 23:33N 41°27' W 070°36'0 0.0
2015-May-24 22:32N 41°27' W 070°36'0 0.0
2015-May-24 21:33N 41°27' W 070°36'0 0.0
2015-May-24 20:33N 41°27' W 070°36'0 0.0
2015-May-24 19:24N 41°27' W 070°36'0 0.0
2015-May-24 18:33N 41°27' W 070°36'0 0.0
2015-May-24 17:33N 41°27' W 070°36'0 0.0
2015-May-24 16:33N 41°27' W 070°36'0 0.0
2015-May-24 15:32N 41°27' W 070°36'0 0.0
2015-May-24 14:33N 41°27' W 070°36'0 0.0
2015-May-24 13:33N 41°27' W 070°36'0 0.0
2015-May-24 12:34N 41°27' W 070°36'0 0.0
2015-May-24 11:33N 41°27' W 070°36'0 0.0
2015-May-24 10:33N 41°27' W 070°36'0 0.0
2015-May-24 09:33N 41°27' W 070°36'0 0.0
2015-May-24 08:33N 41°27' W 070°36'0 0.0
2015-May-24 07:33N 41°27' W 070°36'0 0.0
2015-May-24 06:11N 41°27' W 070°36'0 0.0
2015-May-24 05:31N 41°27' W 070°36'0 0.0
2015-May-24 04:33N 41°27' W 070°36'0 0.0
2015-May-24 03:34N 41°27' W 070°36'0 0.0
2015-May-24 02:33N 41°27' W 070°36'0 0.0
2015-May-24 01:34N 41°27' W 070°36'0 0.0
2015-May-23 23:23N 41°27' W 070°36'0 0.0
2015-May-22 22:32N 41°27' W 070°36'0 0.0
2015-May-22 21:33N 41°27' W 070°36'0 0.0
2015-May-22 20:23N 41°27' W 070°36'0 0.0
2015-May-22 17:20N 41°27' W 070°36'0 0.0
2015-May-22 01:24N 41°27' W 070°36'0 0.0
2015-May-21 23:31N 41°27' W 070°36'0 0.0
2015-May-21 22:33N 41°27' W 070°36'0 0.0
2015-May-21 21:34N 41°27' W 070°36'0 0.0
2015-May-21 20:34N 41°27' W 070°36'0 0.0
2015-May-21 18:25N 41°27' W 070°36'1 0.7
2015-May-21 17:27N 41°28' W 070°36'5 5.8
2015-May-21 16:33N 41°26' W 070°42'6 6.0
2015-May-21 15:33N 41°21' W 070°46'0 0.1
2015-May-21 14:33N 41°21' W 070°46'0 0.0
2015-May-21 13:33N 41°21' W 070°46'0 0.0
2015-May-21 12:33N 41°21' W 070°46'0 0.1
2015-May-21 11:33N 41°21' W 070°46'0 0.0
2015-May-21 10:33N 41°21' W 070°46'0 0.0
2015-May-21 08:27N 41°21' W 070°46'0 0.0
2015-May-21 07:06N 41°21' W 070°46'0 0.0
2015-May-20 17:33N 41°21' W 070°46'10 1.2
2015-May-20 09:11N 41°27' W 070°36'0 0.0
2015-May-20 08:33N 41°27' W 070°36'0 0.0
2015-May-20 06:22N 41°27' W 070°36'0 0.0
2015-May-20 04:33N 41°27' W 070°36'0 0.0
2015-May-20 03:25N 41°27' W 070°36'0 0.0
2015-May-20 02:33N 41°27' W 070°36'0 0.0
2015-May-20 01:34N 41°27' W 070°36'0 0.0
2015-May-20 00:34N 41°27' W 070°36'0 0.4
2015-May-19 23:32N 41°28' W 070°36'5 5.1
2015-May-19 22:34N 41°27' W 070°42'  
Track history (hours):
 
Tides and Currents Weather Stations Pressure Air Temp Water Temp Dewpoint Dewpoint Depression Visibility Wind Speed Wind Dir Waves Ship Positions

Sirius

Owner: TISBURY TOWING AND TRANSPORTATION INC, TISBURY, MA. More information available from US FCC via Universal Licensing System and Coast Guard Vessel Documentation Center.

Last reported at 2015-May-29 21:33 UTC. Time now 2015-May-29 22:13 UTC.
Position N 41°36' W 070°54'.

Length 19 m; draft 1.9 m.

Type: Towing. MMSI: 367181040.

Date/timePositionNaut miles runAvg speedWind from/ knotsBaromVisibWave heightAir tempDewpointWater temp
2015-May-29 21:33N 41°36' W 070°54'2 0.1
2015-May-28 23:04N 41°38' W 070°55'9 5.6
2015-May-28 21:33N 41°32' W 070°46'6 5.4
2015-May-28 20:31N 41°31' W 070°39'4 4.2
2015-May-28 19:33N 41°27' W 070°36'1 1.0
2015-May-28 18:34N 41°28' W 070°35'4 3.5
2015-May-28 17:31N 41°27' W 070°30'4 4.6
2015-May-28 16:33N 41°27' W 070°24'7 5.4
2015-May-28 15:16N 41°25' W 070°15'11 0.8
2015-May-28 01:11N 41°17' W 070°06'2 3.9
2015-May-28 00:33N 41°19' W 070°07'6 6.2
2015-May-27 23:33N 41°25' W 070°11'7 7.1
2015-May-27 22:34N 41°26' W 070°20'8 7.6
2015-May-27 21:33N 41°28' W 070°30'8 7.9
2015-May-27 20:30N 41°31' W 070°41'7 7.1
2015-May-27 19:33N 41°33' W 070°49'6 6.0
2015-May-27 18:31N 41°38' W 070°55'1 1.1
2015-May-27 17:24N 41°39' W 070°55'7 2.5
2015-May-27 14:27N 41°33' W 070°49'6 6.7
2015-May-27 13:30N 41°31' W 070°41'6 4.6
2015-May-27 12:17N 41°27' W 070°36'0 0.0
2015-May-27 09:29N 41°27' W 070°36'0 0.0
2015-May-27 08:32N 41°27' W 070°36'0 0.0
2015-May-27 07:31N 41°27' W 070°36'0 0.0
2015-May-27 06:29N 41°27' W 070°36'0 0.0
2015-May-27 05:33N 41°27' W 070°36'0 0.0
2015-May-27 04:28N 41°27' W 070°36'0 0.0
2015-May-27 03:33N 41°27' W 070°36'0 0.0
2015-May-27 00:28N 41°27' W 070°36'0 0.0
2015-May-26 23:07N 41°27' W 070°36'0 0.0
2015-May-26 21:30N 41°27' W 070°36'0 0.0
2015-May-26 20:33N 41°27' W 070°36'0 0.0
2015-May-26 19:31N 41°27' W 070°36'0 0.0
2015-May-26 13:15N 41°27' W 070°36'0 0.0
2015-May-26 12:28N 41°27' W 070°36'0 0.0
2015-May-26 09:22N 41°27' W 070°36'0 0.0
2015-May-26 08:12N 41°27' W 070°36'0 0.0
2015-May-26 07:32N 41°27' W 070°36'0 0.0
2015-May-26 06:33N 41°27' W 070°36'0 0.0
2015-May-26 05:33N 41°27' W 070°36'0 0.0
2015-May-26 04:33N 41°27' W 070°36'0 0.0
2015-May-26 03:34N 41°27' W 070°36'0 0.0
2015-May-26 02:28N 41°27' W 070°36'0 0.0
2015-May-26 01:24N 41°27' W 070°36'0 0.0
2015-May-26 00:28N 41°27' W 070°36'0 0.0
2015-May-25 23:25N 41°27' W 070°36'0 0.0
2015-May-25 22:33N 41°27' W 070°36'0 0.0
2015-May-25 21:33N 41°27' W 070°36'0 0.0
2015-May-25 20:33N 41°27' W 070°36'0 0.0
2015-May-25 19:33N 41°27' W 070°36'0 0.0
2015-May-25 18:33N 41°27' W 070°36'0 0.0
2015-May-25 17:33N 41°27' W 070°36'0 0.0
2015-May-25 16:27N 41°27' W 070°36'0 0.0
2015-May-25 15:32N 41°27' W 070°36'0 0.0
2015-May-25 14:07N 41°27' W 070°36'0 0.0
2015-May-25 13:16N 41°27' W 070°36'0 0.0
2015-May-25 12:33N 41°27' W 070°36'0 0.0
2015-May-25 11:33N 41°27' W 070°36'0 0.0
2015-May-25 10:33N 41°27' W 070°36'0 0.0
2015-May-25 09:33N 41°27' W 070°36'0 0.0
2015-May-25 08:33N 41°27' W 070°36'0 0.0
2015-May-25 07:23N 41°27' W 070°36'0 0.0
2015-May-25 02:18N 41°27' W 070°36'0 0.0
2015-May-25 01:32N 41°27' W 070°36'0 0.0
2015-May-25 00:34N 41°27' W 070°36'0 0.0
2015-May-24 23:33N 41°27' W 070°36'0 0.0
2015-May-24 22:32N 41°27' W 070°36'0 0.0
2015-May-24 21:33N 41°27' W 070°36'0 0.0
2015-May-24 20:33N 41°27' W 070°36'0 0.0
2015-May-24 19:24N 41°27' W 070°36'0 0.0
2015-May-24 18:33N 41°27' W 070°36'0 0.0
2015-May-24 17:33N 41°27' W 070°36'0 0.0
2015-May-24 16:33N 41°27' W 070°36'0 0.0
2015-May-24 15:32N 41°27' W 070°36'0 0.0
2015-May-24 14:33N 41°27' W 070°36'0 0.0
2015-May-24 13:33N 41°27' W 070°36'0 0.0
2015-May-24 12:34N 41°27' W 070°36'0 0.0
2015-May-24 11:33N 41°27' W 070°36'0 0.0
2015-May-24 10:33N 41°27' W 070°36'0 0.0
2015-May-24 09:33N 41°27' W 070°36'0 0.0
2015-May-24 08:33N 41°27' W 070°36'0 0.0
2015-May-24 07:33N 41°27' W 070°36'0 0.0
2015-May-24 06:11N 41°27' W 070°36'0 0.0
2015-May-24 05:31N 41°27' W 070°36'0 0.0
2015-May-24 04:33N 41°27' W 070°36'0 0.0
2015-May-24 03:34N 41°27' W 070°36'0 0.0
2015-May-24 02:33N 41°27' W 070°36'0 0.0
2015-May-24 01:34N 41°27' W 070°36'0 0.0
2015-May-23 23:23N 41°27' W 070°36'0 0.0
2015-May-22 22:32N 41°27' W 070°36'0 0.0
2015-May-22 21:33N 41°27' W 070°36'0 0.0
2015-May-22 20:23N 41°27' W 070°36'0 0.0
2015-May-22 17:20N 41°27' W 070°36'0 0.0
2015-May-22 01:24N 41°27' W 070°36'0 0.0
2015-May-21 23:31N 41°27' W 070°36'0 0.0
2015-May-21 22:33N 41°27' W 070°36'0 0.0
2015-May-21 21:34N 41°27' W 070°36'0 0.0
2015-May-21 20:34N 41°27' W 070°36'0 0.0
2015-May-21 18:25N 41°27' W 070°36'1 0.7
2015-May-21 17:27N 41°28' W 070°36'5 5.8
2015-May-21 16:33N 41°26' W 070°42'6 6.0
2015-May-21 15:33N 41°21' W 070°46'0 0.1
2015-May-21 14:33N 41°21' W 070°46'0 0.0
2015-May-21 13:33N 41°21' W 070°46'0 0.0
2015-May-21 12:33N 41°21' W 070°46'0 0.1
2015-May-21 11:33N 41°21' W 070°46'0 0.0
2015-May-21 10:33N 41°21' W 070°46'0 0.0
2015-May-21 08:27N 41°21' W 070°46'0 0.0
2015-May-21 07:06N 41°21' W 070°46'0 0.0
2015-May-20 17:33N 41°21' W 070°46'10 1.2
2015-May-20 09:11N 41°27' W 070°36'0 0.0
2015-May-20 08:33N 41°27' W 070°36'0 0.0
2015-May-20 06:22N 41°27' W 070°36'0 0.0
2015-May-20 04:33N 41°27' W 070°36'0 0.0
2015-May-20 03:25N 41°27' W 070°36'0 0.0
2015-May-20 02:33N 41°27' W 070°36'0 0.0
2015-May-20 01:34N 41°27' W 070°36'0 0.0
2015-May-20 00:34N 41°27' W 070°36'0 0.4
2015-May-19 23:32N 41°28' W 070°36'5 5.1
2015-May-19 22:34N 41°27' W 070°42'  

Dump ship's entire track history